Portada
METAR-TAF:

METAR-TAF

Aeroports :

Seül Inchon, Corea del Sud

latitud: 37-28N, longitud: 126-27E, altitud: 7 m

Observació

L'informe es va fer fa 31 minuts, a les 11:00 UTC
Vent 8 kt del Nord-Oest
Temperatura 2°C
Humitat 23%
Pressió 1024 hPa
Visibilitat 10 km o més
sense núvols per sota de 1500 mi sense presència de cumulonimbus.

METAR: RKSI 201100Z 32008KT CAVOK 02/M17 Q1024 NOSIG

Hora: 20:31 (11:31 UTC)

Pronòstic

L'informe es va fer fa 6 hores i 31 minuts, a les 05:00 UTC
Pronòstic vàlid del 20 a les 06 UTC al 21 a les 12 UTC
Vent 7 kt del Nord/Nord-Oest
Visibilitat 10 km o més
sense núvols per sota de 1500 mi sense presència de cumulonimbus.
Temporalment
l' 21 a les 05 UTC al 21 a les 10 UTC
Vent 10 kt del Oest

TAF: RKSI 200500Z 2006/2112 33007KT CAVOK TNM04/2021Z TX03/2106Z TEMPO 2105/2110 27010KT

Observacions i pronòstics meteorològics de més de 4000 aeroports (METAR i TAF).

Les estacions disponibles són els punts grocs i vermells al mapa.

Posi el ratolí al punt desitjat per veure el nom de l'estació.

Feu clic per veure les observacions i els pronòstics meteorològics.

Per canviar el mapa: feu clic els botons verds amb una creu de color negre per apropar; al botó verd amb un guió per allunyar la imatge; o en les fletxes verdes per a mapes adjacents.


METAR-TAF: